createdAt,value
2022-09-27T00:01:15.387Z,11.88
2022-09-27T00:03:42.616Z,11.90
2022-09-27T00:06:28.136Z,11.91
2022-09-27T00:08:55.542Z,11.80
2022-09-27T00:11:32.177Z,11.76
2022-09-27T00:13:59.724Z,11.78
2022-09-27T00:16:29.041Z,11.84
2022-09-27T00:19:07.822Z,11.84
2022-09-27T00:21:35.179Z,11.79
2022-09-27T00:24:02.281Z,11.77
2022-09-27T00:26:29.454Z,11.65
2022-09-27T00:28:56.381Z,11.57
2022-09-27T00:31:24.524Z,11.73
2022-09-27T00:33:53.287Z,11.79
2022-09-27T00:36:21.940Z,11.81
2022-09-27T00:38:48.880Z,11.89
2022-09-27T00:41:21.752Z,11.97
2022-09-27T00:43:48.346Z,11.99
2022-09-27T00:46:20.775Z,11.99
2022-09-27T00:48:49.412Z,12.06
2022-09-27T00:51:16.842Z,12.10
2022-09-27T00:53:51.644Z,12.06
2022-09-27T00:56:27.269Z,12.13
2022-09-27T00:59:01.939Z,12.16
2022-09-27T01:01:30.689Z,12.16
2022-09-27T01:04:04.932Z,12.16
2022-09-27T01:06:32.010Z,12.10
2022-09-27T01:08:58.835Z,12.10
2022-09-27T01:11:44.923Z,12.13
2022-09-27T01:14:30.362Z,11.99
2022-09-27T01:17:27.310Z,11.88
2022-09-27T01:20:12.858Z,11.78
2022-09-27T01:22:49.330Z,11.81
2022-09-27T01:25:22.008Z,11.87
2022-09-27T01:28:10.660Z,11.90
2022-09-27T01:30:43.372Z,11.89
2022-09-27T01:33:39.942Z,12.01
2022-09-27T01:36:07.068Z,11.97
2022-09-27T01:38:52.772Z,12.08
2022-09-27T01:42:13.108Z,12.18
2022-09-27T01:44:58.529Z,12.19
2022-09-27T01:47:39.561Z,12.23
2022-09-27T01:50:29.576Z,12.25
2022-09-27T01:53:08.652Z,12.30
2022-09-27T01:55:49.683Z,12.29
2022-09-27T01:58:59.333Z,12.24
2022-09-27T02:01:30.225Z,12.16
2022-09-27T02:04:00.514Z,12.02
2022-09-27T02:06:49.349Z,12.10
2022-09-27T02:09:26.653Z,12.07
2022-09-27T02:12:09.831Z,12.02
2022-09-27T02:14:49.856Z,12.12
2022-09-27T02:17:22.005Z,12.05
2022-09-27T02:20:11.857Z,12.03
2022-09-27T02:23:21.474Z,11.97
2022-09-27T02:26:02.851Z,12.00
2022-09-27T02:28:51.630Z,12.07
2022-09-27T02:31:25.610Z,12.11
2022-09-27T02:34:07.071Z,12.14
2022-09-27T02:36:33.935Z,12.23
2022-09-27T02:39:01.355Z,12.15
2022-09-27T02:41:30.523Z,12.23
2022-09-27T02:44:04.033Z,12.24
2022-09-27T02:46:52.282Z,12.22
2022-09-27T02:49:34.076Z,12.07
2022-09-27T02:52:28.159Z,12.09
2022-09-27T02:55:06.544Z,12.16
2022-09-27T02:58:22.329Z,12.10
2022-09-27T03:01:31.087Z,11.99
2022-09-27T03:04:09.935Z,12.07
2022-09-27T03:06:41.461Z,11.82
2022-09-27T03:09:25.494Z,11.95
2022-09-27T03:11:53.353Z,12.06
2022-09-27T03:14:20.213Z,12.15
2022-09-27T03:17:04.238Z,12.18
2022-09-27T03:19:51.376Z,12.19
2022-09-27T03:22:44.201Z,12.08
2022-09-27T03:25:11.825Z,12.11
2022-09-27T03:27:38.697Z,12.17
2022-09-27T03:30:06.540Z,12.26
2022-09-27T03:32:34.132Z,12.36
2022-09-27T03:35:19.661Z,12.39
2022-09-27T03:37:47.267Z,12.46
2022-09-27T03:40:14.103Z,12.51
2022-09-27T03:42:42.520Z,12.56
2022-09-27T03:45:12.083Z,12.61
2022-09-27T03:47:42.283Z,12.62
2022-09-27T03:50:10.680Z,12.65
2022-09-27T03:52:37.699Z,12.68
2022-09-27T03:55:05.407Z,12.71
2022-09-27T03:57:32.160Z,12.73
2022-09-27T04:00:02.284Z,12.77
2022-09-27T04:02:42.142Z,12.76
2022-09-27T04:05:30.539Z,12.78
2022-09-27T04:08:11.183Z,12.79
2022-09-27T04:10:38.475Z,12.80
2022-09-27T04:13:05.863Z,12.82
2022-09-27T04:15:39.501Z,12.82
2022-09-27T04:18:25.241Z,12.84
2022-09-27T04:21:10.824Z,12.86
2022-09-27T04:23:42.926Z,12.88
2022-09-27T04:26:13.969Z,12.88
2022-09-27T04:29:01.078Z,12.84
2022-09-27T04:31:28.242Z,12.85
2022-09-27T04:34:09.240Z,12.89
2022-09-27T04:36:36.934Z,12.93
2022-09-27T04:39:08.413Z,12.88
2022-09-27T04:41:37.984Z,12.94
2022-09-27T04:44:05.035Z,12.96
2022-09-27T04:46:32.030Z,13.00
2022-09-27T04:49:00.420Z,13.05
2022-09-27T04:51:29.122Z,13.03
2022-09-27T04:53:58.236Z,13.02
2022-09-27T04:56:34.433Z,12.93
2022-09-27T04:59:08.298Z,12.98
2022-09-27T05:01:38.675Z,13.07
2022-09-27T05:04:15.434Z,13.18
2022-09-27T05:06:47.479Z,13.22
2022-09-27T05:09:23.292Z,13.04
2022-09-27T05:11:52.691Z,13.08
2022-09-27T05:14:34.981Z,13.12
2022-09-27T05:17:23.517Z,13.06
2022-09-27T05:19:56.046Z,12.89
2022-09-27T05:22:40.290Z,12.94
2022-09-27T05:25:07.777Z,13.06
2022-09-27T05:27:34.863Z,13.17
2022-09-27T05:30:02.121Z,13.04
2022-09-27T05:32:43.840Z,12.95
2022-09-27T05:35:35.787Z,12.97
2022-09-27T05:38:03.621Z,13.01
2022-09-27T05:40:41.707Z,13.19
2022-09-27T05:43:10.257Z,13.22
2022-09-27T05:45:37.190Z,13.29
2022-09-27T05:48:05.532Z,13.02
2022-09-27T05:50:36.856Z,13.14
2022-09-27T05:53:03.800Z,13.24
2022-09-27T05:55:30.603Z,13.28
2022-09-27T05:58:05.527Z,13.52
2022-09-27T06:00:44.109Z,13.59
2022-09-27T06:03:30.800Z,13.55
2022-09-27T06:06:20.877Z,13.59
2022-09-27T06:08:53.661Z,13.76
2022-09-27T06:11:21.667Z,13.96
2022-09-27T06:13:50.029Z,14.17
2022-09-27T06:16:16.987Z,14.23
2022-09-27T06:18:45.279Z,14.43
2022-09-27T06:21:13.561Z,14.57
2022-09-27T06:23:44.715Z,14.36
2022-09-27T06:26:22.047Z,14.43
2022-09-27T06:28:59.231Z,14.48
2022-09-27T06:31:26.112Z,14.57
2022-09-27T06:34:02.331Z,14.54
2022-09-27T06:36:30.107Z,14.55
2022-09-27T06:38:57.989Z,14.61
2022-09-27T06:41:34.297Z,14.70
2022-09-27T06:44:15.762Z,14.82
2022-09-27T06:46:45.807Z,14.90
2022-09-27T06:49:31.774Z,15.01
2022-09-27T06:51:59.876Z,15.19
2022-09-27T06:54:26.610Z,15.35
2022-09-27T06:56:53.403Z,15.50
2022-09-27T06:59:39.082Z,15.59
2022-09-27T07:02:27.635Z,15.73
2022-09-27T07:05:13.176Z,15.73
2022-09-27T07:08:05.999Z,15.97
2022-09-27T07:10:36.242Z,16.17
2022-09-27T07:13:08.122Z,16.37
2022-09-27T07:15:37.199Z,16.44
2022-09-27T07:18:07.590Z,16.56
2022-09-27T07:20:37.329Z,16.64
2022-09-27T07:23:05.394Z,16.69
2022-09-27T07:25:34.533Z,16.71
2022-09-27T07:28:05.879Z,16.68
2022-09-27T07:30:33.753Z,16.57
2022-09-27T07:33:03.095Z,16.48
2022-09-27T07:35:30.314Z,16.14
2022-09-27T07:37:58.392Z,15.78
2022-09-27T07:40:26.749Z,15.65
2022-09-27T07:42:57.788Z,15.60
2022-09-27T07:45:25.915Z,15.64
2022-09-27T07:48:16.591Z,15.62
2022-09-27T07:51:11.022Z,15.58
2022-09-27T07:54:07.907Z,15.34
2022-09-27T07:57:03.780Z,15.29
2022-09-27T07:59:31.622Z,15.37
2022-09-27T08:01:58.779Z,15.42
2022-09-27T08:04:25.615Z,15.53
2022-09-27T08:06:52.466Z,15.71
2022-09-27T08:09:19.339Z,15.59
2022-09-27T08:11:46.246Z,15.42
2022-09-27T08:14:14.814Z,15.59
2022-09-27T08:16:44.721Z,15.66
2022-09-27T08:19:34.206Z,15.69
2022-09-27T08:22:27.130Z,15.88
2022-09-27T08:24:57.771Z,16.00
2022-09-27T08:27:58.236Z,16.07
2022-09-27T08:30:39.135Z,16.27
2022-09-27T08:33:07.218Z,16.45
2022-09-27T08:35:34.237Z,16.58
2022-09-27T08:38:03.268Z,16.67
2022-09-27T08:40:43.548Z,16.68
2022-09-27T08:43:21.258Z,16.35
2022-09-27T08:45:57.351Z,16.42
2022-09-27T08:48:27.650Z,16.45
2022-09-27T08:50:55.744Z,16.54
2022-09-27T08:53:37.234Z,16.59
2022-09-27T08:56:08.209Z,16.69
2022-09-27T08:59:12.614Z,16.90
2022-09-27T09:01:39.827Z,17.08
2022-09-27T09:04:11.897Z,17.25
2022-09-27T09:07:03.197Z,17.45
2022-09-27T09:10:14.122Z,17.64
2022-09-27T09:12:57.436Z,17.86
2022-09-27T09:15:56.470Z,18.08
2022-09-27T09:18:51.618Z,18.25
2022-09-27T09:21:51.229Z,18.47
2022-09-27T09:24:42.537Z,18.66
2022-09-27T09:27:29.581Z,18.83
2022-09-27T09:30:18.734Z,19.04
2022-09-27T09:33:09.773Z,19.15
2022-09-27T09:35:43.817Z,19.15
2022-09-27T09:38:19.423Z,19.05
2022-09-27T09:40:59.707Z,19.04
2022-09-27T09:43:39.536Z,19.05
2022-09-27T09:46:35.195Z,18.98
2022-09-27T09:49:19.472Z,18.85
2022-09-27T09:51:51.930Z,18.80
2022-09-27T09:54:24.412Z,18.78
2022-09-27T09:57:05.924Z,18.79
2022-09-27T10:00:09.763Z,18.90
2022-09-27T10:02:44.972Z,19.06
2022-09-27T10:05:21.903Z,19.23
2022-09-27T10:07:57.618Z,19.49
2022-09-27T10:10:24.971Z,19.81
2022-09-27T10:12:55.385Z,19.97
2022-09-27T10:15:30.729Z,20.02
2022-09-27T10:17:59.753Z,20.06
2022-09-27T10:20:33.403Z,20.24
2022-09-27T10:23:22.712Z,20.46
2022-09-27T10:26:10.413Z,20.56
2022-09-27T10:28:47.546Z,20.56
2022-09-27T10:31:20.699Z,20.57
2022-09-27T10:34:05.702Z,20.82
2022-09-27T10:36:42.284Z,21.10
2022-09-27T10:39:23.828Z,21.46
2022-09-27T10:41:51.513Z,21.83
2022-09-27T10:44:28.087Z,22.32
2022-09-27T10:47:10.311Z,22.60
2022-09-27T10:49:53.826Z,22.58
2022-09-27T10:52:43.686Z,22.41
2022-09-27T10:55:27.051Z,22.27
2022-09-27T10:57:56.285Z,21.96
2022-09-27T11:00:27.977Z,22.00
2022-09-27T11:02:58.091Z,22.05
2022-09-27T11:05:36.118Z,22.07
2022-09-27T11:08:23.229Z,22.14
2022-09-27T11:11:05.110Z,22.17
2022-09-27T11:13:34.517Z,22.04
2022-09-27T11:16:29.816Z,22.10
2022-09-27T11:19:18.740Z,22.15
2022-09-27T11:22:24.574Z,22.26
2022-09-27T11:27:46.341Z,22.50
2022-09-27T11:30:20.829Z,22.91
2022-09-27T11:33:28.160Z,23.33
2022-09-27T11:36:22.614Z,23.67
2022-09-27T11:39:08.070Z,23.86
2022-09-27T11:42:06.401Z,23.95
2022-09-27T11:44:47.058Z,23.91
2022-09-27T11:47:34.177Z,23.84
2022-09-27T11:50:16.001Z,23.75
2022-09-27T11:52:51.342Z,23.79
2022-09-27T11:55:30.583Z,24.06
2022-09-27T11:58:21.750Z,24.39
2022-09-27T12:00:55.703Z,24.99
2022-09-27T12:03:46.898Z,25.49
2022-09-27T12:06:19.481Z,25.50
2022-09-27T12:08:59.725Z,25.30
2022-09-27T12:11:31.390Z,24.96
2022-09-27T12:14:27.659Z,24.49
2022-09-27T12:16:57.814Z,24.08
2022-09-27T12:19:52.044Z,23.77
2022-09-27T12:22:57.727Z,23.53
2022-09-27T12:25:37.214Z,23.39
2022-09-27T12:28:34.900Z,23.14
2022-09-27T12:31:28.336Z,23.09
2022-09-27T12:34:28.158Z,22.89
2022-09-27T12:37:17.172Z,22.63
2022-09-27T12:39:54.306Z,22.43
2022-09-27T12:42:49.142Z,22.18
2022-09-27T12:46:05.279Z,21.91
2022-09-27T12:48:41.810Z,21.65
2022-09-27T12:51:17.357Z,21.45
2022-09-27T12:54:20.762Z,21.20
2022-09-27T12:57:09.336Z,20.88
2022-09-27T13:00:07.025Z,20.64
2022-09-27T13:03:16.274Z,20.23
2022-09-27T13:06:11.890Z,20.10
2022-09-27T13:08:58.040Z,20.02
2022-09-27T13:11:58.636Z,19.99
2022-09-27T13:14:29.323Z,19.98
2022-09-27T13:16:56.578Z,20.04
2022-09-27T13:19:35.498Z,20.09
2022-09-27T13:22:05.027Z,20.09
2022-09-27T13:24:57.965Z,20.00
2022-09-27T13:27:51.166Z,20.01
2022-09-27T13:30:23.501Z,19.57
2022-09-27T13:33:16.863Z,19.69
2022-09-27T13:36:17.626Z,19.33
2022-09-27T13:38:55.371Z,19.55
2022-09-27T13:41:23.246Z,19.65
2022-09-27T13:44:29.569Z,19.76
2022-09-27T13:47:06.718Z,19.71
2022-09-27T13:49:38.497Z,19.62
2022-09-27T13:52:37.732Z,19.53
2022-09-27T13:55:50.983Z,19.03
2022-09-27T13:58:47.461Z,18.98
2022-09-27T14:01:48.274Z,18.84
2022-09-27T14:04:27.055Z,18.71
2022-09-27T14:06:57.852Z,18.61
2022-09-27T14:09:29.463Z,18.45
2022-09-27T14:12:19.226Z,18.31
2022-09-27T14:14:49.607Z,18.19
2022-09-27T14:17:17.303Z,18.08
2022-09-27T14:19:46.018Z,18.04
2022-09-27T14:22:22.743Z,18.01
2022-09-27T14:24:58.017Z,17.96
2022-09-27T14:27:35.726Z,17.90
2022-09-27T14:30:30.523Z,17.83
2022-09-27T14:33:31.618Z,17.72
2022-09-27T14:36:25.645Z,17.55
2022-09-27T14:38:58.851Z,17.27
2022-09-27T14:41:38.236Z,17.18
2022-09-27T14:44:05.070Z,17.04
2022-09-27T14:46:32.509Z,16.94
2022-09-27T14:49:11.309Z,16.84
2022-09-27T14:51:38.775Z,16.74
2022-09-27T14:54:07.947Z,16.68
2022-09-27T14:56:37.807Z,16.61
2022-09-27T14:59:11.460Z,16.56
2022-09-27T15:01:40.084Z,16.51
2022-09-27T15:04:11.770Z,16.46
2022-09-27T15:06:39.325Z,16.37
2022-09-27T15:09:07.158Z,16.31
2022-09-27T15:11:34.896Z,16.22
2022-09-27T15:14:04.936Z,16.14
2022-09-27T15:16:32.101Z,16.09
2022-09-27T15:19:07.243Z,16.04
2022-09-27T15:21:36.475Z,16.00
2022-09-27T15:24:04.444Z,15.97
2022-09-27T15:26:46.431Z,15.95
2022-09-27T15:29:21.646Z,15.92
2022-09-27T15:32:00.840Z,15.89
2022-09-27T15:34:29.965Z,15.86
2022-09-27T15:37:03.602Z,15.83
2022-09-27T15:39:36.902Z,15.77
2022-09-27T15:42:13.493Z,15.73
2022-09-27T15:44:45.295Z,15.70
2022-09-27T15:47:38.772Z,15.62
2022-09-27T15:50:17.539Z,15.57
2022-09-27T15:52:57.234Z,15.52
2022-09-27T15:55:29.532Z,15.43
2022-09-27T15:58:05.315Z,15.36
2022-09-27T16:00:32.451Z,15.28
2022-09-27T16:02:59.461Z,15.23
2022-09-27T16:05:27.286Z,15.16
2022-09-27T16:07:54.383Z,15.12
2022-09-27T16:10:42.536Z,15.08
2022-09-27T16:13:09.371Z,15.07
2022-09-27T16:15:36.911Z,15.05
2022-09-27T16:18:04.286Z,15.05
2022-09-27T16:20:32.199Z,15.04
2022-09-27T16:22:59.271Z,15.05
2022-09-27T16:25:26.132Z,15.03
2022-09-27T16:27:52.878Z,15.01
2022-09-27T16:30:20.760Z,15.01
2022-09-27T16:32:48.823Z,15.00
2022-09-27T16:35:17.831Z,14.98
2022-09-27T16:37:44.806Z,14.96
2022-09-27T16:40:13.655Z,14.93
2022-09-27T16:42:41.292Z,14.91
2022-09-27T16:45:11.218Z,14.85
2022-09-27T16:47:40.506Z,14.79
2022-09-27T16:50:26.790Z,14.75
2022-09-27T16:52:55.453Z,14.68
2022-09-27T16:55:22.951Z,14.61
2022-09-27T16:57:51.163Z,14.55
2022-09-27T17:00:18.622Z,14.49
2022-09-27T17:02:48.562Z,14.42
2022-09-27T17:05:17.452Z,14.41
2022-09-27T17:07:44.231Z,14.38
2022-09-27T17:10:11.293Z,14.35
2022-09-27T17:12:38.262Z,14.32
2022-09-27T17:15:05.762Z,14.30
2022-09-27T17:17:32.660Z,14.29
2022-09-27T17:19:59.876Z,14.27
2022-09-27T17:22:26.892Z,14.26
2022-09-27T17:24:53.933Z,14.26
2022-09-27T17:27:25.158Z,14.23
2022-09-27T17:29:53.104Z,14.19
2022-09-27T17:32:22.663Z,14.16
2022-09-27T17:34:49.768Z,14.14
2022-09-27T17:37:17.055Z,14.12
2022-09-27T17:39:44.170Z,14.09
2022-09-27T17:42:11.801Z,14.07
2022-09-27T17:44:38.985Z,14.06
2022-09-27T17:47:24.415Z,14.05
2022-09-27T17:50:09.990Z,14.03
2022-09-27T17:52:36.983Z,14.03
2022-09-27T17:55:04.071Z,14.03
2022-09-27T17:57:31.917Z,14.05
2022-09-27T17:59:58.703Z,14.04
2022-09-27T18:02:28.267Z,14.07
2022-09-27T18:04:55.209Z,14.08
2022-09-27T18:07:23.089Z,14.07
2022-09-27T18:09:51.184Z,14.08
2022-09-27T18:12:18.032Z,14.08
2022-09-27T18:14:46.450Z,14.09
2022-09-27T18:17:15.341Z,14.12
2022-09-27T18:19:42.837Z,14.13
2022-09-27T18:22:11.138Z,14.15
2022-09-27T18:24:38.269Z,14.15
2022-09-27T18:27:06.556Z,14.18
2022-09-27T18:29:33.785Z,14.20
2022-09-27T18:32:03.060Z,14.24
2022-09-27T18:34:31.133Z,14.27
2022-09-27T18:36:59.461Z,14.30
2022-09-27T18:39:26.692Z,14.31
2022-09-27T18:41:56.320Z,14.27
2022-09-27T18:44:24.180Z,14.29
2022-09-27T18:46:51.403Z,14.34
2022-09-27T18:49:23.492Z,14.35
2022-09-27T18:51:54.315Z,14.36
2022-09-27T18:54:22.749Z,14.36
2022-09-27T18:56:52.337Z,14.36
2022-09-27T18:59:21.016Z,14.36
2022-09-27T19:01:49.534Z,14.31
2022-09-27T19:04:25.299Z,14.29
2022-09-27T19:06:53.901Z,14.24
2022-09-27T19:09:21.287Z,14.21
2022-09-27T19:11:48.538Z,14.13
2022-09-27T19:14:18.235Z,14.10
2022-09-27T19:16:47.578Z,14.12
2022-09-27T19:19:16.596Z,14.14
2022-09-27T19:21:43.952Z,14.12
2022-09-27T19:24:11.916Z,14.05
2022-09-27T19:26:39.607Z,13.87
2022-09-27T19:29:06.713Z,13.69
2022-09-27T19:31:35.928Z,13.66
2022-09-27T19:34:03.952Z,13.61
2022-09-27T19:36:31.372Z,13.56
2022-09-27T19:38:58.955Z,13.52
2022-09-27T19:41:27.046Z,13.52
2022-09-27T19:43:55.575Z,13.55
2022-09-27T19:46:24.450Z,13.59
2022-09-27T19:48:52.322Z,13.64
2022-09-27T19:51:22.059Z,13.70
2022-09-27T19:53:50.043Z,13.76
2022-09-27T19:56:17.775Z,13.82
2022-09-27T19:58:44.745Z,13.87
2022-09-27T20:01:11.610Z,13.91
2022-09-27T20:03:40.779Z,13.96
2022-09-27T20:06:19.099Z,13.98
2022-09-27T20:08:47.819Z,14.01
2022-09-27T20:11:16.896Z,14.03
2022-09-27T20:13:44.035Z,14.08
2022-09-27T20:16:15.082Z,14.11
2022-09-27T20:18:44.135Z,14.12
2022-09-27T20:21:11.593Z,14.14
2022-09-27T20:23:38.891Z,14.18
2022-09-27T20:26:08.220Z,14.20
2022-09-27T20:28:36.116Z,14.21
2022-09-27T20:31:04.997Z,14.20
2022-09-27T20:33:41.170Z,14.14
2022-09-27T20:36:15.221Z,14.15
2022-09-27T20:38:44.097Z,14.18
2022-09-27T20:41:12.711Z,14.09
2022-09-27T20:43:39.800Z,14.09
2022-09-27T20:46:08.655Z,14.07
2022-09-27T20:48:35.622Z,14.06
2022-09-27T20:51:04.781Z,14.01
2022-09-27T20:53:32.006Z,14.02
2022-09-27T20:56:02.582Z,14.00
2022-09-27T20:58:31.386Z,14.01
2022-09-27T21:01:05.635Z,14.02
2022-09-27T21:03:32.726Z,14.04
2022-09-27T21:05:59.438Z,14.09
2022-09-27T21:08:29.795Z,14.08
2022-09-27T21:11:04.568Z,14.15
2022-09-27T21:13:31.500Z,14.14
2022-09-27T21:16:07.022Z,14.16
2022-09-27T21:18:34.943Z,14.06
2022-09-27T21:21:04.535Z,14.04
2022-09-27T21:23:32.939Z,14.06
2022-09-27T21:26:05.739Z,14.01
2022-09-27T21:28:36.384Z,14.01
2022-09-27T21:31:08.614Z,13.97
2022-09-27T21:33:36.338Z,14.05
2022-09-27T21:36:04.576Z,14.07
2022-09-27T21:38:31.920Z,14.06
2022-09-27T21:41:04.686Z,14.09
2022-09-27T21:43:32.670Z,14.08
2022-09-27T21:46:12.618Z,14.08
2022-09-27T21:48:41.799Z,14.11
2022-09-27T21:51:45.568Z,14.14
2022-09-27T21:54:15.904Z,14.18
2022-09-27T21:56:43.750Z,14.20
2022-09-27T21:59:13.152Z,14.24
2022-09-27T22:01:42.116Z,14.26
2022-09-27T22:04:09.328Z,14.29
2022-09-27T22:06:37.903Z,14.31
2022-09-27T22:09:12.144Z,14.30
2022-09-27T22:11:44.372Z,14.31
2022-09-27T22:14:12.441Z,14.33
2022-09-27T22:16:39.353Z,14.34
2022-09-27T22:19:06.741Z,14.33
2022-09-27T22:21:39.790Z,14.34
2022-09-27T22:24:11.000Z,14.33
2022-09-27T22:26:40.270Z,14.33
2022-09-27T22:29:08.122Z,14.30
2022-09-27T22:31:35.507Z,14.30
2022-09-27T22:34:05.097Z,14.29
2022-09-27T22:36:32.359Z,14.29
2022-09-27T22:38:59.190Z,14.28
2022-09-27T22:41:26.178Z,14.29
2022-09-27T22:43:53.598Z,14.29
2022-09-27T22:46:21.323Z,14.30
2022-09-27T22:48:49.687Z,14.30
2022-09-27T22:51:17.373Z,14.31
2022-09-27T22:53:44.400Z,14.33
2022-09-27T22:56:16.557Z,14.32
2022-09-27T22:58:44.167Z,14.33
2022-09-27T23:01:17.257Z,14.31
2022-09-27T23:03:45.561Z,14.32
2022-09-27T23:06:12.844Z,14.31
2022-09-27T23:08:40.113Z,14.30
2022-09-27T23:11:11.108Z,14.28
2022-09-27T23:13:41.306Z,14.25
2022-09-27T23:16:16.270Z,14.26
2022-09-27T23:18:44.450Z,14.23
2022-09-27T23:21:12.945Z,14.21
2022-09-27T23:23:42.509Z,14.20
2022-09-27T23:26:11.654Z,14.18
2022-09-27T23:28:38.943Z,14.10
2022-09-27T23:31:08.245Z,14.07
2022-09-27T23:33:38.547Z,13.95
2022-09-27T23:36:08.805Z,13.92
2022-09-27T23:38:37.286Z,13.69
2022-09-27T23:41:04.530Z,13.68
2022-09-27T23:43:31.253Z,13.75
2022-09-27T23:45:58.115Z,13.78
2022-09-27T23:48:26.149Z,13.81
2022-09-27T23:50:52.957Z,13.84
2022-09-27T23:53:20.801Z,13.84
2022-09-27T23:55:48.645Z,13.83
2022-09-27T23:58:15.895Z,13.88
